createdAt,value
2018-08-09T00:02:14.528Z,5.30
2018-08-09T00:04:42.210Z,7.27
2018-08-09T00:07:19.320Z,7.43
2018-08-09T00:09:46.988Z,4.53
2018-08-09T00:12:14.666Z,5.27
2018-08-09T00:14:42.323Z,4.00
2018-08-09T00:17:10.044Z,5.37
2018-08-09T00:19:37.756Z,6.70
2018-08-09T00:22:05.472Z,7.73
2018-08-09T00:31:18.343Z,7.23
2018-08-09T00:33:46.040Z,4.63
2018-08-09T00:36:13.713Z,4.37
2018-08-09T00:38:41.372Z,4.50
2018-08-09T00:41:09.052Z,5.10
2018-08-09T00:43:36.744Z,5.93
2018-08-09T00:46:04.908Z,7.47
2018-08-09T00:48:32.583Z,4.93
2018-08-09T00:51:00.264Z,4.63
2018-08-09T00:53:27.938Z,4.40
2018-08-09T00:55:55.598Z,6.43
2018-08-09T00:58:23.280Z,7.03
2018-08-09T01:00:50.965Z,6.33
2018-08-09T01:03:18.670Z,4.93
2018-08-09T01:05:46.336Z,4.77
2018-08-09T01:08:14.044Z,6.00
2018-08-09T01:10:41.710Z,5.50
2018-08-09T01:13:09.407Z,4.10
2018-08-09T01:15:37.112Z,5.83
2018-08-09T01:18:06.482Z,4.27
2018-08-09T01:20:34.194Z,5.30
2018-08-09T01:23:01.938Z,3.70
2018-08-09T01:25:29.737Z,4.73
2018-08-09T01:27:57.488Z,4.10
2018-08-09T01:30:25.242Z,3.97
2018-08-09T01:32:53.040Z,5.33
2018-08-09T01:35:20.709Z,4.27
2018-08-09T01:37:48.397Z,3.73
2018-08-09T01:40:16.098Z,6.37
2018-08-09T01:42:55.219Z,6.90
2018-08-09T01:45:22.918Z,3.80
2018-08-09T01:47:50.683Z,3.37
2018-08-09T01:50:18.386Z,3.10
2018-08-09T01:52:46.315Z,5.70
2018-08-09T01:55:14.094Z,4.07
2018-08-09T01:57:41.828Z,8.93
2018-08-09T02:00:09.478Z,5.07
2018-08-09T02:02:37.180Z,4.93
2018-08-09T02:05:05.914Z,6.27
2018-08-09T02:07:33.629Z,3.87
2018-08-09T02:10:01.336Z,4.77
2018-08-09T02:12:29.062Z,4.37
2018-08-09T02:14:56.744Z,8.93
2018-08-09T02:17:24.432Z,4.30
2018-08-09T02:19:52.345Z,4.93
2018-08-09T02:22:20.047Z,6.07
2018-08-09T02:24:47.748Z,4.07
2018-08-09T02:27:15.446Z,3.93
2018-08-09T02:29:43.110Z,3.57
2018-08-09T02:32:10.811Z,4.23
2018-08-09T02:34:38.777Z,5.70
2018-08-09T02:37:06.495Z,8.53
2018-08-09T02:39:34.146Z,4.80
2018-08-09T02:42:02.085Z,4.83
2018-08-09T02:44:29.796Z,6.80
2018-08-09T02:46:57.522Z,7.07
2018-08-09T02:49:25.276Z,5.17
2018-08-09T02:51:52.976Z,4.67
2018-08-09T02:54:20.635Z,5.53
2018-08-09T02:56:48.329Z,5.47
2018-08-09T02:59:16.047Z,6.83
2018-08-09T03:01:43.716Z,5.83
2018-08-09T03:04:11.408Z,5.07
2018-08-09T03:06:39.096Z,3.97
2018-08-09T03:09:08.997Z,4.47
2018-08-09T03:11:37.066Z,6.53
2018-08-09T03:14:04.950Z,4.50
2018-08-09T03:16:32.698Z,5.43
2018-08-09T03:19:00.734Z,5.67
2018-08-09T03:21:28.402Z,5.13
2018-08-09T03:23:56.082Z,4.20
2018-08-09T03:26:23.736Z,7.03
2018-08-09T03:28:51.396Z,6.00
2018-08-09T03:31:19.113Z,4.97
2018-08-09T03:33:46.805Z,7.80
2018-08-09T03:36:14.503Z,5.07
2018-08-09T03:38:42.189Z,5.20
2018-08-09T03:41:09.877Z,5.13
2018-08-09T03:43:37.626Z,5.90
2018-08-09T03:46:05.330Z,6.33
2018-08-09T03:48:33.054Z,8.40
2018-08-09T03:51:00.736Z,7.87
2018-08-09T03:53:28.438Z,5.83
2018-08-09T03:55:56.193Z,6.33
2018-08-09T03:58:23.960Z,7.17
2018-08-09T04:00:51.678Z,7.83
2018-08-09T04:03:19.415Z,6.90
2018-08-09T04:05:47.103Z,5.73
2018-08-09T04:08:14.764Z,6.77
2018-08-09T04:10:42.427Z,6.73
2018-08-09T04:13:10.147Z,8.90
2018-08-09T04:15:37.840Z,8.60
2018-08-09T04:18:05.645Z,7.97
2018-08-09T04:20:33.327Z,9.07
2018-08-09T04:23:00.995Z,5.70
2018-08-09T04:25:28.688Z,7.20
2018-08-09T04:27:56.366Z,6.60
2018-08-09T04:30:24.052Z,5.57
2018-08-09T04:32:51.724Z,5.20
2018-08-09T04:35:19.405Z,6.07
2018-08-09T04:37:47.102Z,5.50
2018-08-09T04:40:14.805Z,5.57
2018-08-09T04:42:42.467Z,5.77
2018-08-09T04:45:10.259Z,4.27
2018-08-09T04:47:38.062Z,5.93
2018-08-09T04:50:06.336Z,7.97
2018-08-09T04:52:34.088Z,7.60
2018-08-09T04:55:01.828Z,8.27
2018-08-09T04:57:29.720Z,8.67
2018-08-09T04:59:57.436Z,7.70
2018-08-09T05:02:25.122Z,7.27
2018-08-09T05:04:52.838Z,6.33
2018-08-09T05:07:20.671Z,6.67
2018-08-09T05:09:48.384Z,5.50
2018-08-09T05:12:16.068Z,6.87
2018-08-09T05:14:43.750Z,5.00
2018-08-09T05:17:11.428Z,9.77
2018-08-09T05:19:39.122Z,8.40
2018-08-09T05:22:06.914Z,6.30
2018-08-09T05:24:34.592Z,5.47
2018-08-09T05:27:02.396Z,5.23
2018-08-09T05:29:30.112Z,8.67
2018-08-09T05:31:57.780Z,8.17
2018-08-09T05:34:25.509Z,5.57
2018-08-09T05:36:53.186Z,8.20
2018-08-09T05:39:20.884Z,5.57
2018-08-09T05:41:48.588Z,6.00
2018-08-09T05:44:16.306Z,6.57
2018-08-09T05:46:44.421Z,4.57
2018-08-09T05:49:12.107Z,6.40
2018-08-09T05:51:39.814Z,6.03
2018-08-09T05:54:07.566Z,5.00
2018-08-09T05:56:35.314Z,7.63
2018-08-09T05:59:03.056Z,7.30
2018-08-09T06:01:30.916Z,4.77
2018-08-09T06:03:58.626Z,6.63
2018-08-09T06:06:26.430Z,7.37
2018-08-09T06:08:54.100Z,5.20
2018-08-09T06:11:21.782Z,6.73
2018-08-09T06:13:49.480Z,5.73
2018-08-09T06:16:17.186Z,6.30
2018-08-09T06:18:44.867Z,6.13
2018-08-09T06:21:12.656Z,7.07
2018-08-09T06:23:40.374Z,7.03
2018-08-09T06:26:08.086Z,4.53
2018-08-09T06:28:35.821Z,7.13
2018-08-09T06:31:03.552Z,5.43
2018-08-09T06:33:31.435Z,5.07
2018-08-09T06:35:59.227Z,3.70
2018-08-09T06:38:26.923Z,6.37
2018-08-09T06:40:54.611Z,5.43
2018-08-09T06:43:22.366Z,4.03
2018-08-09T06:45:50.097Z,5.90
2018-08-09T06:48:17.773Z,4.20
2018-08-09T06:50:45.498Z,7.13
2018-08-09T06:53:13.181Z,5.27
2018-08-09T06:55:40.887Z,4.13
2018-08-09T06:58:08.612Z,6.20
2018-08-09T07:00:36.341Z,6.13
2018-08-09T07:03:04.043Z,8.37
2018-08-09T07:05:31.735Z,7.73
2018-08-09T07:07:59.471Z,5.83
2018-08-09T07:10:27.181Z,4.80
2018-08-09T07:12:55.008Z,4.97
2018-08-09T07:15:22.597Z,7.70
2018-08-09T07:17:50.269Z,5.73
2018-08-09T07:20:18.004Z,6.30
2018-08-09T07:22:45.715Z,5.73
2018-08-09T07:25:13.476Z,6.07
2018-08-09T07:27:41.255Z,7.17
2018-08-09T07:30:11.147Z,7.17
2018-08-09T07:32:39.132Z,6.40
2018-08-09T07:35:07.249Z,6.73
2018-08-09T07:37:35.060Z,7.30
2018-08-09T07:40:02.852Z,6.50
2018-08-09T07:42:30.643Z,8.80
2018-08-09T07:44:58.337Z,5.33
2018-08-09T07:47:26.325Z,5.23
2018-08-09T07:49:54.070Z,9.17
2018-08-09T07:52:21.901Z,8.77
2018-08-09T07:54:49.709Z,6.93
2018-08-09T07:57:17.505Z,10.07
2018-08-09T07:59:45.239Z,11.00
2018-08-09T08:02:12.974Z,7.80
2018-08-09T08:04:40.698Z,10.23
2018-08-09T08:07:08.433Z,9.53
2018-08-09T08:09:36.138Z,10.70
2018-08-09T08:12:03.923Z,10.57
2018-08-09T08:14:31.658Z,9.93
2018-08-09T08:16:59.412Z,10.70
2018-08-09T08:19:27.119Z,12.10
2018-08-09T08:21:54.848Z,10.00
2018-08-09T08:24:22.632Z,9.83
2018-08-09T08:26:50.448Z,12.00
2018-08-09T08:29:18.118Z,12.20
2018-08-09T08:31:45.896Z,10.47
2018-08-09T08:34:13.778Z,12.57
2018-08-09T08:36:41.458Z,13.37
2018-08-09T08:39:09.744Z,9.50
2018-08-09T08:41:37.971Z,11.10
2018-08-09T08:44:05.947Z,12.67
2018-08-09T08:46:33.709Z,10.77
2018-08-09T08:49:01.393Z,11.50
2018-08-09T08:51:29.315Z,9.83
2018-08-09T08:53:57.069Z,12.73
2018-08-09T08:56:25.116Z,11.10
2018-08-09T08:58:52.913Z,9.07
2018-08-09T09:01:20.636Z,11.90
2018-08-09T09:03:48.421Z,12.40
2018-08-09T09:06:16.149Z,12.63
2018-08-09T09:08:43.904Z,13.97
2018-08-09T09:11:11.742Z,14.27
2018-08-09T09:13:39.510Z,13.40
2018-08-09T09:16:07.405Z,14.73
2018-08-09T09:18:35.134Z,16.13
2018-08-09T09:21:02.813Z,16.27
2018-08-09T09:23:30.563Z,15.70
2018-08-09T09:25:58.252Z,15.73
2018-08-09T09:28:25.971Z,17.90
2018-08-09T09:30:53.685Z,17.37
2018-08-09T09:33:21.384Z,17.17
2018-08-09T09:35:49.109Z,14.10
2018-08-09T09:38:16.806Z,14.07
2018-08-09T09:40:44.506Z,18.97
2018-08-09T09:43:12.288Z,13.63
2018-08-09T09:45:40.055Z,16.60
2018-08-09T09:48:07.834Z,14.00
2018-08-09T09:50:35.569Z,15.07
2018-08-09T09:53:03.333Z,15.93
2018-08-09T09:55:31.040Z,15.43
2018-08-09T09:57:58.797Z,16.00
2018-08-09T10:00:27.404Z,14.27
2018-08-09T10:02:55.148Z,13.80
2018-08-09T10:05:22.964Z,14.53
2018-08-09T10:07:50.748Z,13.43
2018-08-09T10:10:18.553Z,13.07
2018-08-09T10:12:46.329Z,14.73
2018-08-09T10:15:14.087Z,15.63
2018-08-09T10:17:41.960Z,16.00
2018-08-09T10:20:09.836Z,13.87
2018-08-09T10:22:37.820Z,15.13
2018-08-09T10:25:05.674Z,13.97
2018-08-09T10:27:33.408Z,14.00
2018-08-09T10:30:01.137Z,12.87
2018-08-09T10:32:28.897Z,11.90
2018-08-09T10:34:56.589Z,11.90
2018-08-09T10:37:24.290Z,14.63
2018-08-09T10:39:52.042Z,12.90
2018-08-09T10:42:19.787Z,13.70
2018-08-09T10:44:47.492Z,14.33
2018-08-09T10:47:15.443Z,14.23
2018-08-09T10:49:43.444Z,16.83
2018-08-09T10:52:11.242Z,15.50
2018-08-09T10:54:39.017Z,15.23
2018-08-09T10:57:06.778Z,15.73
2018-08-09T10:59:34.497Z,17.30
2018-08-09T11:02:02.195Z,16.23
2018-08-09T11:04:29.992Z,16.57
2018-08-09T11:06:57.885Z,16.70
2018-08-09T11:09:25.621Z,14.90
2018-08-09T11:11:53.332Z,21.80
2018-08-09T11:14:21.036Z,18.37
2018-08-09T11:16:48.706Z,19.40
2018-08-09T11:19:16.432Z,19.93
2018-08-09T11:21:44.149Z,17.80
2018-08-09T11:24:11.833Z,20.37
2018-08-09T11:26:39.583Z,18.00
2018-08-09T11:29:07.299Z,20.23
2018-08-09T11:31:35.019Z,18.77
2018-08-09T11:34:03.048Z,18.83
2018-08-09T11:36:30.778Z,19.53
2018-08-09T11:38:58.765Z,19.83
2018-08-09T11:41:26.528Z,18.40
2018-08-09T11:43:54.267Z,18.67
2018-08-09T11:46:22.048Z,19.43
2018-08-09T11:48:49.755Z,19.20
2018-08-09T11:51:17.452Z,19.07
2018-08-09T11:53:45.297Z,20.20
2018-08-09T11:56:13.116Z,21.43
2018-08-09T11:58:40.856Z,19.67
2018-08-09T12:01:08.726Z,19.63
2018-08-09T12:03:36.503Z,20.93
2018-08-09T12:06:04.240Z,20.47
2018-08-09T12:08:31.929Z,20.07
2018-08-09T12:10:59.712Z,21.40
2018-08-09T12:13:27.414Z,21.63
2018-08-09T12:15:55.171Z,20.43
2018-08-09T12:18:22.972Z,19.53
2018-08-09T12:20:50.857Z,21.10
2018-08-09T12:23:18.602Z,18.70
2018-08-09T12:25:46.368Z,18.83
2018-08-09T12:28:14.134Z,19.37
2018-08-09T12:30:41.903Z,18.83
2018-08-09T12:33:09.740Z,17.80
2018-08-09T12:35:37.511Z,19.37
2018-08-09T12:38:05.329Z,17.33
2018-08-09T12:40:33.035Z,18.00
2018-08-09T12:43:00.906Z,18.67
2018-08-09T12:45:28.728Z,17.57
2018-08-09T12:47:56.484Z,18.57
2018-08-09T12:50:24.312Z,18.50
2018-08-09T12:52:52.094Z,19.30
2018-08-09T12:55:19.923Z,20.37
2018-08-09T12:57:47.669Z,19.80
2018-08-09T13:00:15.570Z,20.83
2018-08-09T13:02:43.340Z,20.37
2018-08-09T13:05:12.011Z,19.97
2018-08-09T13:07:40.374Z,20.00
2018-08-09T13:10:09.931Z,21.37
2018-08-09T13:12:37.712Z,20.63
2018-08-09T13:15:07.812Z,22.67
2018-08-09T13:17:35.648Z,21.80
2018-08-09T13:20:03.980Z,21.50
2018-08-09T13:22:31.811Z,23.00
2018-08-09T13:30:14.755Z,20.37
2018-08-09T13:32:52.908Z,21.20
2018-08-09T13:35:26.764Z,21.20
2018-08-09T13:37:54.583Z,21.10
2018-08-09T13:40:22.446Z,20.83
2018-08-09T13:42:50.266Z,20.67
2018-08-09T13:45:18.104Z,22.90
2018-08-09T13:47:45.991Z,21.77
2018-08-09T13:50:13.750Z,21.73
2018-08-09T13:52:42.070Z,21.43
2018-08-09T13:55:11.501Z,23.10
2018-08-09T13:57:39.254Z,21.43
2018-08-09T14:00:08.995Z,21.67
2018-08-09T14:02:36.773Z,21.13
2018-08-09T14:05:05.732Z,21.73
2018-08-09T14:07:33.467Z,21.40
2018-08-09T14:10:01.209Z,22.43
2018-08-09T14:12:28.980Z,24.63
2018-08-09T14:14:56.679Z,23.00
2018-08-09T14:17:24.694Z,22.77
2018-08-09T14:19:52.476Z,23.60
2018-08-09T14:22:20.231Z,22.83
2018-08-09T14:24:48.104Z,19.33
2018-08-09T14:27:15.793Z,18.80
2018-08-09T14:29:43.570Z,16.27
2018-08-09T14:32:11.372Z,15.40
2018-08-09T14:34:39.213Z,13.40
2018-08-09T14:37:07.108Z,12.27
2018-08-09T14:39:34.903Z,11.30
2018-08-09T14:42:02.783Z,11.27
2018-08-09T14:44:30.581Z,11.13
2018-08-09T14:46:58.412Z,10.20
2018-08-09T14:49:26.230Z,9.90
2018-08-09T14:51:54.028Z,8.43
2018-08-09T14:54:21.745Z,7.63
2018-08-09T14:56:49.551Z,9.57
2018-08-09T14:59:17.424Z,7.67
2018-08-09T15:01:45.227Z,9.60
2018-08-09T15:04:13.137Z,6.23
2018-08-09T15:06:40.950Z,7.30
2018-08-09T15:09:10.608Z,7.03
2018-08-09T15:11:38.683Z,7.33
2018-08-09T15:14:07.698Z,9.53
2018-08-09T15:16:35.535Z,11.20
2018-08-09T15:19:03.320Z,14.77
2018-08-09T15:21:31.152Z,15.13
2018-08-09T15:23:58.991Z,15.97
2018-08-09T15:26:26.691Z,16.17
2018-08-09T15:28:54.578Z,15.13
2018-08-09T15:31:22.433Z,14.17
2018-08-09T15:33:50.182Z,13.43
2018-08-09T15:36:18.066Z,12.70
2018-08-09T15:38:45.873Z,11.87
2018-08-09T15:41:13.665Z,10.47
2018-08-09T15:43:41.439Z,10.47
2018-08-09T15:46:09.215Z,8.80
2018-08-09T15:48:37.493Z,7.77
2018-08-09T15:51:05.375Z,6.90
2018-08-09T15:53:33.177Z,6.77
2018-08-09T15:56:00.968Z,5.83
2018-08-09T15:58:28.772Z,6.60
2018-08-09T16:00:56.563Z,5.63
2018-08-09T16:03:24.398Z,5.30
2018-08-09T16:05:52.234Z,4.20
2018-08-09T16:08:20.097Z,4.33
2018-08-09T16:10:47.933Z,4.40
2018-08-09T16:13:15.667Z,4.57
2018-08-09T16:15:43.541Z,3.90
2018-08-09T16:18:11.352Z,5.23
2018-08-09T16:20:39.064Z,3.63
2018-08-09T16:23:06.921Z,2.80
2018-08-09T16:25:34.659Z,3.93
2018-08-09T16:28:02.411Z,3.10
2018-08-09T16:30:30.151Z,3.60
2018-08-09T16:32:57.887Z,3.20
2018-08-09T16:35:25.628Z,3.60
2018-08-09T16:37:53.435Z,3.37
2018-08-09T16:40:22.910Z,3.33
2018-08-09T16:42:50.705Z,3.90
2018-08-09T16:45:19.571Z,5.10
2018-08-09T16:47:47.767Z,4.17
2018-08-09T16:50:17.961Z,4.27
2018-08-09T16:52:46.896Z,4.67
2018-08-09T16:55:15.509Z,5.07
2018-08-09T16:57:43.255Z,4.77
2018-08-09T17:00:13.835Z,4.60
2018-08-09T17:02:41.647Z,5.77
2018-08-09T17:05:13.125Z,5.57
2018-08-09T17:07:41.327Z,7.27
2018-08-09T17:10:09.819Z,6.77
2018-08-09T17:12:37.799Z,7.30
2018-08-09T17:15:08.698Z,9.47
2018-08-09T17:17:36.395Z,7.17
2018-08-09T17:20:07.500Z,8.63
2018-08-09T17:22:35.289Z,10.70
2018-08-09T17:25:03.091Z,13.27
2018-08-09T17:27:30.787Z,13.63
2018-08-09T17:29:58.513Z,13.60
2018-08-09T17:32:26.209Z,14.80
2018-08-09T17:34:53.964Z,15.90
2018-08-09T17:37:21.694Z,15.83
2018-08-09T17:39:49.392Z,17.07
2018-08-09T17:42:17.160Z,16.90
2018-08-09T17:44:44.890Z,16.20
2018-08-09T17:47:12.977Z,13.47
2018-08-09T17:49:40.726Z,10.83
2018-08-09T17:52:08.638Z,8.70
2018-08-09T17:54:36.454Z,9.33
2018-08-09T17:57:04.358Z,7.53
2018-08-09T17:59:32.256Z,4.60
2018-08-09T18:02:00.101Z,2.40
2018-08-09T18:04:28.023Z,3.07
2018-08-09T18:06:55.827Z,1.13
2018-08-09T18:09:23.557Z,1.37
2018-08-09T18:11:51.342Z,1.50
2018-08-09T18:14:19.341Z,3.33
2018-08-09T18:16:47.112Z,1.10
2018-08-09T18:19:14.873Z,1.63
2018-08-09T18:21:42.761Z,0.90
2018-08-09T18:24:10.610Z,1.63
2018-08-09T18:26:38.363Z,1.60
2018-08-09T18:29:06.211Z,1.90
2018-08-09T18:31:34.111Z,4.93
2018-08-09T18:34:01.863Z,1.67
2018-08-09T18:36:29.631Z,1.47
2018-08-09T18:38:57.479Z,0.93
2018-08-09T18:41:25.400Z,1.10
2018-08-09T18:43:53.237Z,0.80
2018-08-09T18:46:21.212Z,1.20
2018-08-09T18:48:49.149Z,1.57
2018-08-09T18:51:17.273Z,0.93
2018-08-09T18:53:45.685Z,0.97
2018-08-09T18:56:13.840Z,0.97
2018-08-09T18:58:41.620Z,1.10
2018-08-09T19:01:09.639Z,1.73
2018-08-09T19:03:37.931Z,1.43
2018-08-09T19:06:06.230Z,1.10
2018-08-09T19:08:34.466Z,3.17
2018-08-09T19:11:02.397Z,1.60
2018-08-09T19:13:30.499Z,1.83
2018-08-09T19:15:58.314Z,2.03
2018-08-09T19:18:26.352Z,1.10
2018-08-09T19:20:54.177Z,1.60
2018-08-09T19:23:22.056Z,2.57
2018-08-09T19:25:49.880Z,1.17
2018-08-09T19:28:17.712Z,1.20
2018-08-09T19:30:45.640Z,2.40
2018-08-09T19:33:13.852Z,2.07
2018-08-09T19:35:41.669Z,1.97
2018-08-09T19:38:09.693Z,2.27
2018-08-09T19:40:37.658Z,3.47
2018-08-09T19:43:05.574Z,1.97
2018-08-09T19:45:33.705Z,2.60
2018-08-09T19:48:01.893Z,2.90
2018-08-09T19:50:29.797Z,2.97
2018-08-09T19:52:57.654Z,2.90
2018-08-09T19:55:26.592Z,1.80
2018-08-09T19:57:54.556Z,3.13
2018-08-09T20:00:24.304Z,2.00
2018-08-09T20:02:52.275Z,1.93
2018-08-09T20:05:20.150Z,1.63
2018-08-09T20:07:48.069Z,2.13
2018-08-09T20:10:15.966Z,2.60
2018-08-09T20:12:44.715Z,1.80
2018-08-09T20:15:16.120Z,2.90
2018-08-09T20:17:43.960Z,8.23
2018-08-09T20:20:13.193Z,4.77
2018-08-09T20:22:41.175Z,3.47
2018-08-09T20:25:10.233Z,4.30
2018-08-09T20:27:38.151Z,4.97
2018-08-09T20:30:10.432Z,4.03
2018-08-09T20:32:38.608Z,3.43
2018-08-09T20:35:08.556Z,6.03
2018-08-09T20:37:36.370Z,4.70
2018-08-09T20:40:05.365Z,5.43
2018-08-09T20:42:33.154Z,7.07
2018-08-09T20:45:00.954Z,4.73
2018-08-09T20:47:28.770Z,4.63
2018-08-09T20:49:56.558Z,4.83
2018-08-09T20:52:24.370Z,5.20
2018-08-09T20:54:52.171Z,7.17
2018-08-09T20:57:19.961Z,4.10
2018-08-09T20:59:47.760Z,5.37
2018-08-09T21:02:15.580Z,6.17
2018-08-09T21:04:43.447Z,5.90
2018-08-09T21:07:11.372Z,8.30
2018-08-09T21:09:39.181Z,5.77
2018-08-09T21:12:07.005Z,5.83
2018-08-09T21:14:34.811Z,6.33
2018-08-09T21:17:02.629Z,7.77
2018-08-09T21:19:30.450Z,5.63
2018-08-09T21:21:58.311Z,6.10
2018-08-09T21:24:26.182Z,6.57
2018-08-09T21:26:53.944Z,7.50
2018-08-09T21:29:21.722Z,5.90
2018-08-09T21:31:49.539Z,4.40
2018-08-09T21:34:17.351Z,4.47
2018-08-09T21:36:45.075Z,5.17
2018-08-09T21:39:12.783Z,10.57
2018-08-09T21:41:40.474Z,5.57
2018-08-09T21:44:08.205Z,5.30
2018-08-09T21:46:35.942Z,3.67
2018-08-09T21:49:03.738Z,7.97
2018-08-09T21:51:31.428Z,5.97
2018-08-09T21:53:59.139Z,5.17
2018-08-09T21:56:26.900Z,5.57
2018-08-09T21:58:54.607Z,3.90
2018-08-09T22:01:22.408Z,4.90
2018-08-09T22:03:50.180Z,7.87
2018-08-09T22:06:23.314Z,6.23
2018-08-09T22:08:56.448Z,7.83
2018-08-09T22:11:29.703Z,6.90
2018-08-09T22:14:02.966Z,6.23
2018-08-09T22:16:36.196Z,8.03
2018-08-09T22:19:09.686Z,8.87
2018-08-09T22:21:42.939Z,5.20
2018-08-09T22:24:10.703Z,4.03
2018-08-09T22:26:38.408Z,7.43
2018-08-09T22:29:06.160Z,6.93
2018-08-09T22:31:33.852Z,6.57
2018-08-09T22:34:01.657Z,4.97
2018-08-09T22:36:29.367Z,5.60
2018-08-09T22:38:57.116Z,4.43
2018-08-09T22:41:24.866Z,3.33
2018-08-09T22:43:52.588Z,4.80
2018-08-09T22:46:20.386Z,5.77
2018-08-09T22:48:48.094Z,4.70
2018-08-09T22:51:15.837Z,6.27
2018-08-09T22:53:43.585Z,5.90
2018-08-09T22:56:11.298Z,4.50
2018-08-09T22:58:39.036Z,5.67
2018-08-09T23:01:06.835Z,4.60
2018-08-09T23:03:34.623Z,4.07
2018-08-09T23:06:02.465Z,5.90
2018-08-09T23:08:30.156Z,2.63
2018-08-09T23:10:57.878Z,5.93
2018-08-09T23:13:25.576Z,4.43
2018-08-09T23:15:53.265Z,3.97
2018-08-09T23:18:21.031Z,5.90
2018-08-09T23:20:48.805Z,6.67
2018-08-09T23:23:16.547Z,10.10
2018-08-09T23:25:44.286Z,7.70
2018-08-09T23:28:12.020Z,7.20
2018-08-09T23:30:39.787Z,6.50
2018-08-09T23:33:07.519Z,5.13
2018-08-09T23:35:35.227Z,8.47
2018-08-09T23:38:03.060Z,8.77
2018-08-09T23:40:30.747Z,8.53
2018-08-09T23:42:58.468Z,6.53
2018-08-09T23:45:26.228Z,11.20
2018-08-09T23:47:53.997Z,7.17
2018-08-09T23:50:21.758Z,8.23
2018-08-09T23:52:49.499Z,7.97
2018-08-09T23:55:17.567Z,7.80
2018-08-09T23:57:45.494Z,9.27
